Time,TemperatureF,DewpointF,PressureIn,WindDirection,WindDirectionDegrees,WindSpeedMPH,WindSpeedGustMPH,Humidity,HourlyPrecipIn,Conditions,Clouds,dailyrainin,SoftwareType,DateUTC
2013-12-12 00:01:00,31.0,23.0,30.21,WNW,298,2.0,3.0,71,0.00,,,0.00,weatherlink.com 1.10,2013-12-12 05:01:00,
2013-12-12 00:16:00,31.0,22.0,30.22,West,277,3.0,6.0,69,0.00,,,0.00,weatherlink.com 1.10,2013-12-12 05:16:00,
2013-12-12 00:32:00,30.8,22.0,30.22,NNW,334,6.0,10.0,71,0.00,,,0.00,weatherlink.com 1.10,2013-12-12 05:32:00,
2013-12-12 00:47:00,30.7,22.0,30.22,WNW,290,6.0,9.0,71,0.00,,,0.00,weatherlink.com 1.10,2013-12-12 05:47:00,
2013-12-12 01:02:00,31.1,22.0,30.22,NW,307,2.0,9.0,69,0.00,,,0.00,weatherlink.com 1.10,2013-12-12 06:02:00,
2013-12-12 01:17:00,30.7,22.0,30.23,WNW,302,3.0,8.0,71,0.00,,,0.00,weatherlink.com 1.10,2013-12-12 06:17:00,
2013-12-12 01:32:00,31.0,21.0,30.24,West,275,10.0,15.0,67,0.00,,,0.00,weatherlink.com 1.10,2013-12-12 06:32:00,
2013-12-12 01:47:00,31.2,20.0,30.25,WNW,283,2.0,12.0,64,0.00,,,0.00,weatherlink.com 1.10,2013-12-12 06:47:00,
2013-12-12 02:02:00,30.7,21.0,30.26,WNW,284,4.0,9.0,67,0.00,,,0.00,weatherlink.com 1.10,2013-12-12 07:02:00,
2013-12-12 02:17:00,29.9,22.0,30.27,West,266,3.0,11.0,71,0.00,,,0.00,weatherlink.com 1.10,2013-12-12 07:17:00,
2013-12-12 02:32:00,29.0,20.0,30.28,WNW,292,5.0,10.0,69,0.00,,,0.00,weatherlink.com 1.10,2013-12-12 07:32:00,
2013-12-12 02:47:00,28.3,20.0,30.28,West,277,1.0,10.0,70,0.00,,,0.00,weatherlink.com 1.10,2013-12-12 07:47:00,
2013-12-12 03:02:00,27.4,19.0,30.28,NNW,346,3.0,10.0,71,0.00,,,0.00,weatherlink.com 1.10,2013-12-12 08:02:00,
2013-12-12 03:17:00,26.7,18.0,30.28,WNW,289,9.0,9.0,71,0.00,,,0.00,weatherlink.com 1.10,2013-12-12 08:17:00,
2013-12-12 03:32:00,26.3,17.0,30.29,NW,314,3.0,14.0,69,0.00,,,0.00,weatherlink.com 1.10,2013-12-12 08:32:00,
2013-12-12 03:47:00,25.8,17.0,30.29,NW,315,1.0,8.0,68,0.00,,,0.00,weatherlink.com 1.10,2013-12-12 08:47:00,
2013-12-12 04:02:00,25.6,14.0,30.29,WNW,288,9.0,11.0,62,0.00,,,0.00,weatherlink.com 1.10,2013-12-12 09:02:00,
2013-12-12 04:17:00,25.0,13.0,30.30,NW,311,3.0,8.0,61,0.00,,,0.00,weatherlink.com 1.10,2013-12-12 09:17:00,
2013-12-12 04:32:00,24.4,13.0,30.30,WNW,300,1.0,7.0,62,0.00,,,0.00,weatherlink.com 1.10,2013-12-12 09:32:00,
2013-12-12 04:47:00,23.8,12.0,30.31,WNW,297,6.0,11.0,62,0.00,,,0.00,weatherlink.com 1.10,2013-12-12 09:47:00,
2013-12-12 05:02:00,23.7,12.0,30.30,WNW,282,9.0,14.0,61,0.00,,,0.00,weatherlink.com 1.10,2013-12-12 10:02:00,
2013-12-12 05:17:00,23.4,12.0,30.30,WNW,300,5.0,16.0,61,0.00,,,0.00,weatherlink.com 1.10,2013-12-12 10:17:00,
2013-12-12 05:32:00,22.7,11.0,30.30,WNW,288,4.0,13.0,62,0.00,,,0.00,weatherlink.com 1.10,2013-12-12 10:32:00,
2013-12-12 05:47:00,22.5,12.0,30.32,WSW,257,5.0,11.0,63,0.00,,,0.00,weatherlink.com 1.10,2013-12-12 10:47:00,
2013-12-12 06:03:00,22.3,11.0,30.32,West,270,0.0,7.0,62,0.00,,,0.00,weatherlink.com 1.10,2013-12-12 11:03:00,
2013-12-12 06:18:00,21.8,11.0,30.34,NW,310,0.0,3.0,63,0.00,,,0.00,weatherlink.com 1.10,2013-12-12 11:18:00,
2013-12-12 06:33:00,21.4,11.0,30.34,WNW,289,0.0,6.0,63,0.00,,,0.00,weatherlink.com 1.10,2013-12-12 11:33:00,
2013-12-12 06:48:00,20.7,11.0,30.34,WNW,289,1.0,2.0,65,0.00,,,0.00,weatherlink.com 1.10,2013-12-12 11:48:00,
2013-12-12 07:03:00,20.0,11.0,30.35,WNW,292,3.0,4.0,68,0.00,,,0.00,weatherlink.com 1.10,2013-12-12 12:03:00,
2013-12-12 07:18:00,19.8,11.0,30.35,West,275,2.0,6.0,68,0.00,,,0.00,weatherlink.com 1.10,2013-12-12 12:18:00,
2013-12-12 07:33:00,19.7,11.0,30.36,West,271,2.0,4.0,68,0.00,,,0.00,weatherlink.com 1.10,2013-12-12 12:33:00,
2013-12-12 07:48:00,19.3,11.0,30.36,WNW,286,4.0,4.0,69,0.00,,,0.00,weatherlink.com 1.10,2013-12-12 12:48:00,
2013-12-12 08:03:00,19.6,11.0,30.36,WNW,292,2.0,6.0,69,0.00,,,0.00,weatherlink.com 1.10,2013-12-12 13:03:00,
2013-12-12 08:18:00,20.0,11.0,30.36,NW,317,2.0,6.0,69,0.00,,,0.00,weatherlink.com 1.10,2013-12-12 13:18:00,
2013-12-12 08:33:00,20.9,12.0,30.37,WNW,301,1.0,5.0,68,0.00,,,0.00,weatherlink.com 1.10,2013-12-12 13:33:00,
2013-12-12 08:48:00,21.5,12.0,30.38,SSW,204,0.0,2.0,68,0.00,,,0.00,weatherlink.com 1.10,2013-12-12 13:48:00,
2013-12-12 09:03:00,24.8,14.0,30.37,WNW,284,3.0,3.0,63,0.00,,,0.00,weatherlink.com 1.10,2013-12-12 14:03:00,
2013-12-12 09:18:00,26.4,14.0,30.38,WNW,288,3.0,7.0,60,0.00,,,0.00,weatherlink.com 1.10,2013-12-12 14:18:00,
2013-12-12 09:33:00,27.4,14.0,30.38,WNW,287,3.0,7.0,57,0.00,,,0.00,weatherlink.com 1.10,2013-12-12 14:33:00,
2013-12-12 09:48:00,27.3,13.0,30.38,WNW,286,5.0,12.0,56,0.00,,,0.00,weatherlink.com 1.10,2013-12-12 14:48:00,
2013-12-12 10:03:00,26.7,12.0,30.38,WNW,294,6.0,17.0,53,0.00,,,0.00,weatherlink.com 1.10,2013-12-12 15:03:00,
2013-12-12 10:18:00,27.0,12.0,30.37,WNW,291,11.0,15.0,54,0.00,,,0.00,weatherlink.com 1.10,2013-12-12 15:18:00,
2013-12-12 10:33:00,27.4,11.0,30.37,West,272,8.0,12.0,51,0.00,,,0.00,weatherlink.com 1.10,2013-12-12 15:33:00,
2013-12-12 10:48:00,27.8,12.0,30.37,NW,311,6.0,10.0,51,0.00,,,0.00,weatherlink.com 1.10,2013-12-12 15:48:00,
2013-12-12 11:03:00,28.2,12.0,30.36,WNW,294,3.0,13.0,50,0.00,,,0.00,weatherlink.com 1.10,2013-12-12 16:03:00,
2013-12-12 11:18:00,28.9,12.0,30.35,WNW,291,6.0,8.0,49,0.00,,,0.00,weatherlink.com 1.10,2013-12-12 16:18:00,
2013-12-12 11:33:00,28.2,11.0,30.34,NW,312,2.0,12.0,48,0.00,,,0.00,weatherlink.com 1.10,2013-12-12 16:33:00,
2013-12-12 11:48:00,28.5,11.0,30.32,WNW,303,2.0,9.0,48,0.00,,,0.00,weatherlink.com 1.10,2013-12-12 16:48:00,
2013-12-12 12:03:00,29.2,11.0,30.31,WNW,296,3.0,9.0,47,0.00,,,0.00,weatherlink.com 1.10,2013-12-12 17:03:00,
2013-12-12 12:18:00,29.4,11.0,30.30,WNW,288,6.0,11.0,46,0.00,,,0.00,weatherlink.com 1.10,2013-12-12 17:18:00,
2013-12-12 12:33:00,29.3,10.0,30.30,WNW,300,4.0,10.0,45,0.00,,,0.00,weatherlink.com 1.10,2013-12-12 17:33:00,
2013-12-12 12:49:00,30.2,10.0,30.29,West,278,2.0,8.0,43,0.00,,,0.00,weatherlink.com 1.10,2013-12-12 17:49:00,
2013-12-12 13:03:00,31.0,9.0,30.29,WNW,284,4.0,6.0,40,0.00,,,0.00,weatherlink.com 1.10,2013-12-12 18:03:00,
2013-12-12 13:18:00,30.7,8.0,30.28,NW,309,1.0,10.0,38,0.00,,,0.00,weatherlink.com 1.10,2013-12-12 18:18:00,
2013-12-12 13:33:00,31.2,8.0,30.28,WNW,296,3.0,10.0,37,0.00,,,0.00,weatherlink.com 1.10,2013-12-12 18:33:00,
2013-12-12 13:48:00,31.2,7.0,30.27,WNW,284,4.0,7.0,36,0.01,,,0.01,weatherlink.com 1.10,2013-12-12 18:48:00,
2013-12-12 14:03:00,30.9,6.0,30.27,NW,304,4.0,10.0,35,0.01,,,0.01,weatherlink.com 1.10,2013-12-12 19:03:00,
2013-12-12 14:18:00,30.1,7.0,30.27,NW,309,0.0,6.0,38,0.01,,,0.01,weatherlink.com 1.10,2013-12-12 19:18:00,
2013-12-12 14:33:00,29.0,7.0,30.27,WNW,296,9.0,9.0,39,0.01,,,0.01,weatherlink.com 1.10,2013-12-12 19:33:00,
2013-12-12 14:48:00,28.5,6.0,30.27,WNW,284,5.0,11.0,39,0.00,,,0.01,weatherlink.com 1.10,2013-12-12 19:48:00,
2013-12-12 15:03:00,28.2,7.0,30.26,West,265,0.0,11.0,40,0.00,,,0.01,weatherlink.com 1.10,2013-12-12 20:03:00,
2013-12-12 15:18:00,28.1,7.0,30.27,WNW,299,3.0,11.0,40,0.00,,,0.01,weatherlink.com 1.10,2013-12-12 20:18:00,
2013-12-12 15:33:00,28.0,7.0,30.27,WNW,301,1.0,7.0,41,0.00,,,0.01,weatherlink.com 1.10,2013-12-12 20:33:00,
2013-12-12 15:48:00,27.8,7.0,30.26,WNW,290,4.0,10.0,41,0.00,,,0.01,weatherlink.com 1.10,2013-12-12 20:48:00,
2013-12-12 16:03:00,27.5,7.0,30.27,WNW,286,2.0,8.0,42,0.00,,,0.01,weatherlink.com 1.10,2013-12-12 21:03:00,
2013-12-12 16:18:00,27.2,6.0,30.27,West,279,1.0,5.0,41,0.00,,,0.01,weatherlink.com 1.10,2013-12-12 21:18:00,
2013-12-12 16:33:00,26.7,6.0,30.27,WNW,302,1.0,7.0,42,0.00,,,0.01,weatherlink.com 1.10,2013-12-12 21:33:00,
2013-12-12 16:48:00,26.2,6.0,30.27,WNW,293,1.0,8.0,43,0.00,,,0.01,weatherlink.com 1.10,2013-12-12 21:48:00,
2013-12-12 17:03:00,25.7,6.0,30.27,NW,310,3.0,8.0,44,0.00,,,0.01,weatherlink.com 1.10,2013-12-12 22:03:00,
2013-12-12 17:20:00,25.7,6.0,30.28,WNW,302,5.0,11.0,43,0.00,,,0.01,weatherlink.com 1.10,2013-12-12 22:20:00,
2013-12-12 17:34:00,25.4,6.0,30.28,WNW,300,3.0,7.0,44,0.00,,,0.01,weatherlink.com 1.10,2013-12-12 22:34:00,
2013-12-12 17:49:00,25.3,7.0,30.28,WNW,298,2.0,9.0,45,0.00,,,0.01,weatherlink.com 1.10,2013-12-12 22:49:00,
2013-12-12 18:04:00,25.0,6.0,30.28,West,278,2.0,5.0,45,0.00,,,0.01,weatherlink.com 1.10,2013-12-12 23:04:00,
2013-12-12 18:19:00,25.3,7.0,30.29,WNW,297,5.0,8.0,46,0.00,,,0.01,weatherlink.com 1.10,2013-12-12 23:19:00,
2013-12-12 18:34:00,25.4,8.0,30.28,NW,313,4.0,9.0,47,0.00,,,0.01,weatherlink.com 1.10,2013-12-12 23:34:00,
2013-12-12 18:49:00,25.5,7.0,30.27,NW,312,4.0,13.0,46,0.00,,,0.01,weatherlink.com 1.10,2013-12-12 23:49:00,
2013-12-12 19:04:00,25.4,7.0,30.28,WNW,288,7.0,8.0,46,0.00,,,0.01,weatherlink.com 1.10,2013-12-13 00:04:00,
2013-12-12 19:19:00,25.4,8.0,30.27,WNW,302,3.0,9.0,47,0.00,,,0.01,weatherlink.com 1.10,2013-12-13 00:19:00,
2013-12-12 19:34:00,25.1,8.0,30.27,WNW,294,5.0,7.0,48,0.00,,,0.01,weatherlink.com 1.10,2013-12-13 00:34:00,
2013-12-12 19:49:00,25.1,8.0,30.26,WNW,296,3.0,9.0,48,0.00,,,0.01,weatherlink.com 1.10,2013-12-13 00:49:00,
2013-12-12 20:04:00,25.2,8.0,30.26,WNW,299,5.0,10.0,48,0.00,,,0.01,weatherlink.com 1.10,2013-12-13 01:04:00,
2013-12-12 20:19:00,24.7,8.0,30.25,NW,316,3.0,5.0,49,0.00,,,0.01,weatherlink.com 1.10,2013-12-13 01:19:00,
2013-12-12 20:34:00,24.1,8.0,30.24,NW,311,0.0,4.0,50,0.00,,,0.01,weatherlink.com 1.10,2013-12-13 01:34:00,
2013-12-12 20:49:00,24.5,8.0,30.23,North,351,0.0,6.0,49,0.00,,,0.01,weatherlink.com 1.10,2013-12-13 01:49:00,
2013-12-12 21:04:00,25.1,8.0,30.23,WNW,291,6.0,9.0,48,0.00,,,0.01,weatherlink.com 1.10,2013-12-13 02:04:00,
2013-12-12 21:19:00,25.2,8.0,30.23,NW,304,4.0,7.0,48,0.00,,,0.01,weatherlink.com 1.10,2013-12-13 02:19:00,
2013-12-12 21:34:00,24.9,8.0,30.22,NW,325,1.0,6.0,48,0.00,,,0.01,weatherlink.com 1.10,2013-12-13 02:34:00,
2013-12-12 21:49:00,24.4,8.0,30.22,NW,312,0.0,2.0,49,0.00,,,0.01,weatherlink.com 1.10,2013-12-13 02:49:00,
2013-12-12 22:04:00,23.1,8.0,30.22,NNW,343,0.0,3.0,52,0.00,,,0.01,weatherlink.com 1.10,2013-12-13 03:04:00,
2013-12-12 22:19:00,21.4,7.0,30.21,NE,50,0.0,2.0,55,0.00,,,0.01,weatherlink.com 1.10,2013-12-13 03:19:00,
2013-12-12 22:34:00,21.1,7.0,30.20,NW,316,1.0,5.0,55,0.00,,,0.01,weatherlink.com 1.10,2013-12-13 03:34:00,
2013-12-12 22:49:00,24.5,8.0,30.20,SW,235,0.0,11.0,50,0.00,,,0.01,weatherlink.com 1.10,2013-12-13 03:49:00,
2013-12-12 23:04:00,25.2,9.0,30.20,NW,309,5.0,7.0,50,0.00,,,0.01,weatherlink.com 1.10,2013-12-13 04:04:00,
2013-12-12 23:19:00,24.0,9.0,30.19,WNW,300,0.0,4.0,53,0.00,,,0.01,weatherlink.com 1.10,2013-12-13 04:19:00,
2013-12-12 23:34:00,21.2,8.0,30.19,WNW,300,0.0,0.0,58,0.00,,,0.01,weatherlink.com 1.10,2013-12-13 04:34:00,
2013-12-12 23:49:00,22.7,9.0,30.18,West,269,1.0,6.0,56,0.00,,,0.01,weatherlink.com 1.10,2013-12-13 04:49:00,